createdAt,value
2018-08-28T00:00:18.815Z,101063.03
2018-08-28T00:02:47.329Z,101065.56
2018-08-28T00:05:15.845Z,101068.58
2018-08-28T00:07:44.662Z,101061.27
2018-08-28T00:10:13.130Z,101066.20
2018-08-28T00:12:41.574Z,101067.90
2018-08-28T00:15:10.112Z,101065.05
2018-08-28T00:17:38.660Z,101074.73
2018-08-28T00:20:07.178Z,101075.38
2018-08-28T00:22:35.725Z,101084.70
2018-08-28T00:25:04.593Z,101080.70
2018-08-28T00:27:33.119Z,101079.05
2018-08-28T00:30:01.626Z,101073.44
2018-08-28T00:32:30.113Z,101075.59
2018-08-28T00:34:58.637Z,101077.72
2018-08-28T00:37:27.136Z,101079.59
2018-08-28T00:39:55.589Z,101081.53
2018-08-28T00:42:24.079Z,101084.81
2018-08-28T00:44:52.604Z,101078.15
2018-08-28T00:47:21.102Z,101078.05
2018-08-28T00:49:49.755Z,101084.81
2018-08-28T00:52:18.303Z,101085.09
2018-08-28T00:54:46.836Z,101087.58
2018-08-28T00:57:15.343Z,101093.31
2018-08-28T00:59:43.935Z,101093.41
2018-08-28T01:02:12.433Z,101090.43
2018-08-28T01:04:40.897Z,101093.41
2018-08-28T01:07:09.625Z,101089.42
2018-08-28T01:09:38.090Z,101091.18
2018-08-28T01:12:06.585Z,101089.84
2018-08-28T01:14:35.084Z,101097.70
2018-08-28T01:17:03.980Z,101102.55
2018-08-28T01:19:32.487Z,101100.50
2018-08-28T01:22:00.990Z,101101.19
2018-08-28T01:24:29.513Z,101103.38
2018-08-28T01:26:58.047Z,101101.83
2018-08-28T01:29:26.517Z,101105.72
2018-08-28T01:31:55.061Z,101097.59
2018-08-28T01:34:23.543Z,101100.98
2018-08-28T01:36:52.003Z,101103.97
2018-08-28T01:39:20.553Z,101098.42
2018-08-28T01:41:49.067Z,101097.41
2018-08-28T01:44:18.316Z,101095.22
2018-08-28T01:46:46.839Z,101097.30
2018-08-28T01:49:15.322Z,101099.14
2018-08-28T01:51:43.791Z,101102.31
2018-08-28T01:54:12.273Z,101103.97
2018-08-28T01:56:40.803Z,101102.63
2018-08-28T01:59:09.314Z,101099.54
2018-08-28T02:01:37.834Z,101103.54
2018-08-28T02:04:06.323Z,101105.16
2018-08-28T02:06:34.839Z,101103.97
2018-08-28T02:09:03.436Z,101105.98
2018-08-28T02:11:31.977Z,101104.33
2018-08-28T02:14:00.503Z,101113.27
2018-08-28T02:16:29.026Z,101113.95
2018-08-28T02:18:57.578Z,101111.93
2018-08-28T02:21:26.058Z,101118.19
2018-08-28T02:23:54.553Z,101123.73
2018-08-28T02:26:23.075Z,101121.39
2018-08-28T02:28:52.558Z,101123.62
2018-08-28T02:31:21.063Z,101118.11
2018-08-28T02:33:49.606Z,101115.23
2018-08-28T02:36:18.145Z,101120.05
2018-08-28T02:38:46.684Z,101121.27
2018-08-28T02:41:15.205Z,101119.23
2018-08-28T02:43:43.711Z,101121.06
2018-08-28T02:46:12.229Z,101120.48
2018-08-28T02:48:40.724Z,101121.20
2018-08-28T02:51:09.265Z,101122.61
2018-08-28T02:53:37.752Z,101127.14
2018-08-28T02:56:06.280Z,101120.56
2018-08-28T02:58:35.123Z,101119.23
2018-08-28T03:01:03.643Z,101124.98
2018-08-28T03:03:32.146Z,101120.88
2018-08-28T03:06:00.709Z,101124.77
2018-08-28T03:08:29.189Z,101126.20
2018-08-28T03:10:57.668Z,101122.63
2018-08-28T03:13:26.180Z,101118.16
2018-08-28T03:15:54.815Z,101120.01
2018-08-28T03:18:23.285Z,101126.53
2018-08-28T03:20:51.839Z,101126.44
2018-08-28T03:23:20.333Z,101125.54
2018-08-28T03:25:48.835Z,101134.24
2018-08-28T03:28:17.375Z,101139.77
2018-08-28T03:30:45.868Z,101129.41
2018-08-28T03:33:14.396Z,101134.64
2018-08-28T03:35:42.886Z,101129.83
2018-08-28T03:38:12.290Z,101131.06
2018-08-28T03:40:42.753Z,101129.64
2018-08-28T03:43:11.267Z,101131.55
2018-08-28T03:45:39.785Z,101131.05
2018-08-28T03:48:08.313Z,101133.31
2018-08-28T03:50:36.856Z,101141.38
2018-08-28T03:53:06.137Z,101138.42
2018-08-28T03:55:34.826Z,101150.50
2018-08-28T03:58:03.217Z,101139.43
2018-08-28T04:00:31.728Z,101144.98
2018-08-28T04:03:00.201Z,101149.19
2018-08-28T04:05:29.103Z,101149.59
2018-08-28T04:07:57.692Z,101155.02
2018-08-28T04:10:26.971Z,101155.20
2018-08-28T04:12:55.484Z,101161.66
2018-08-28T04:15:23.961Z,101156.25
2018-08-28T04:17:52.521Z,101156.55
2018-08-28T04:20:21.673Z,101160.02
2018-08-28T04:22:50.189Z,101165.36
2018-08-28T04:25:19.049Z,101168.11
2018-08-28T04:27:48.154Z,101169.56
2018-08-28T04:30:16.741Z,101176.31
2018-08-28T04:32:45.165Z,101175.19
2018-08-28T04:35:13.694Z,101176.93
2018-08-28T04:37:42.186Z,101175.09
2018-08-28T04:40:10.717Z,101177.84
2018-08-28T04:42:39.267Z,101180.21
2018-08-28T04:45:07.784Z,101175.39
2018-08-28T04:47:36.676Z,101181.54
2018-08-28T04:50:05.806Z,101184.20
2018-08-28T04:52:34.415Z,101178.46
2018-08-28T04:55:03.015Z,101183.69
2018-08-28T04:57:31.445Z,101182.75
2018-08-28T04:59:59.910Z,101186.59
2018-08-28T05:02:35.085Z,101187.92
2018-08-28T05:05:05.062Z,101192.74
2018-08-28T05:07:33.727Z,101193.12
2018-08-28T05:10:02.365Z,101197.93
2018-08-28T05:12:30.878Z,101200.51
2018-08-28T05:14:59.889Z,101200.38
2018-08-28T05:17:28.353Z,101203.88
2018-08-28T05:19:56.821Z,101208.99
2018-08-28T05:22:26.015Z,101211.25
2018-08-28T05:24:54.554Z,101215.66
2018-08-28T05:27:23.065Z,101216.45
2018-08-28T05:29:51.943Z,101217.69
2018-08-28T05:32:20.482Z,101222.80
2018-08-28T05:34:49.062Z,101224.45
2018-08-28T05:37:17.569Z,101229.87
2018-08-28T05:39:46.077Z,101226.26
2018-08-28T05:42:14.619Z,101228.71
2018-08-28T05:44:43.156Z,101224.80
2018-08-28T05:47:11.729Z,101228.48
2018-08-28T05:49:41.190Z,101226.44
2018-08-28T05:52:09.649Z,101231.20
2018-08-28T05:54:38.233Z,101235.80
2018-08-28T05:57:06.826Z,101231.07
2018-08-28T05:59:35.682Z,101230.75
2018-08-28T06:02:04.286Z,101227.12
2018-08-28T06:04:32.770Z,101236.84
2018-08-28T06:07:01.281Z,101233.20
2018-08-28T06:09:29.849Z,101239.26
2018-08-28T06:11:58.395Z,101240.98
2018-08-28T06:14:26.897Z,101240.16
2018-08-28T06:16:55.466Z,101242.16
2018-08-28T06:19:23.953Z,101245.91
2018-08-28T06:21:52.474Z,101251.20
2018-08-28T06:24:22.139Z,101255.81
2018-08-28T06:26:50.677Z,101256.89
2018-08-28T06:29:19.233Z,101258.54
2018-08-28T06:31:47.721Z,101254.09
2018-08-28T06:34:16.179Z,101255.50
2018-08-28T06:36:44.722Z,101262.89
2018-08-28T06:39:13.308Z,101264.83
2018-08-28T06:41:41.818Z,101261.45
2018-08-28T06:44:10.471Z,101261.38
2018-08-28T06:46:39.382Z,101265.18
2018-08-28T06:49:07.864Z,101269.52
2018-08-28T06:51:36.398Z,101275.41
2018-08-28T06:54:04.951Z,101279.87
2018-08-28T06:56:33.490Z,101278.09
2018-08-28T06:59:01.999Z,101279.73
2018-08-28T07:01:30.865Z,101282.31
2018-08-28T07:03:59.457Z,101279.27
2018-08-28T07:06:27.955Z,101282.48
2018-08-28T07:08:56.516Z,101285.30
2018-08-28T07:11:25.022Z,101285.77
2018-08-28T07:13:53.523Z,101285.41
2018-08-28T07:16:22.369Z,101291.55
2018-08-28T07:18:50.985Z,101283.09
2018-08-28T07:21:19.453Z,101282.87
2018-08-28T07:23:47.984Z,101291.56
2018-08-28T07:26:16.494Z,101292.48
2018-08-28T07:28:45.064Z,101302.50
2018-08-28T07:31:13.635Z,101298.50
2018-08-28T07:33:42.534Z,101302.28
2018-08-28T07:36:11.087Z,101298.50
2018-08-28T07:38:39.611Z,101301.51
2018-08-28T07:41:08.147Z,101302.09
2018-08-28T07:43:36.673Z,101302.45
2018-08-28T07:46:05.244Z,101303.06
2018-08-28T07:48:33.781Z,101302.17
2018-08-28T07:51:02.971Z,101305.42
2018-08-28T07:53:31.462Z,101306.20
2018-08-28T07:56:00.117Z,101305.67
2018-08-28T07:58:28.613Z,101308.23
2018-08-28T08:00:57.155Z,101304.63
2018-08-28T08:03:25.990Z,101305.11
2018-08-28T08:05:55.932Z,101306.89
2018-08-28T08:08:24.505Z,101309.00
2018-08-28T08:10:53.598Z,101318.91
2018-08-28T08:13:22.110Z,101318.45
2018-08-28T08:15:50.648Z,101320.54
2018-08-28T08:18:19.202Z,101324.55
2018-08-28T08:20:47.683Z,101322.39
2018-08-28T08:23:16.550Z,101326.04
2018-08-28T08:25:45.022Z,101323.55
2018-08-28T08:28:13.578Z,101326.07
2018-08-28T08:30:42.082Z,101321.81
2018-08-28T08:33:10.563Z,101322.91
2018-08-28T08:35:39.046Z,101321.86
2018-08-28T08:38:07.602Z,101327.45
2018-08-28T08:40:36.150Z,101330.87
2018-08-28T08:43:04.633Z,101332.06
2018-08-28T08:45:33.146Z,101334.19
2018-08-28T08:48:01.626Z,101331.88
2018-08-28T08:50:30.152Z,101332.83
2018-08-28T08:52:58.657Z,101338.09
2018-08-28T08:55:27.189Z,101336.64
2018-08-28T08:57:55.697Z,101341.48
2018-08-28T09:00:24.217Z,101337.66
2018-08-28T09:02:59.446Z,101340.84
2018-08-28T09:05:27.956Z,101344.83
2018-08-28T09:07:56.439Z,101348.09
2018-08-28T09:10:24.991Z,101351.17
2018-08-28T09:12:53.495Z,101352.11
2018-08-28T09:15:21.989Z,101352.80
2018-08-28T09:17:50.526Z,101364.51
2018-08-28T09:20:19.009Z,101354.14
2018-08-28T09:22:47.559Z,101359.72
2018-08-28T09:25:16.043Z,101347.58
2018-08-28T09:27:44.585Z,101343.73
2018-08-28T09:30:13.113Z,101346.48
2018-08-28T09:32:41.593Z,101342.81
2018-08-28T09:35:10.155Z,101346.69
2018-08-28T09:37:38.646Z,101344.23
2018-08-28T09:40:07.614Z,101345.42
2018-08-28T09:42:36.153Z,101343.12
2018-08-28T09:45:04.693Z,101349.03
2018-08-28T09:47:33.554Z,101349.86
2018-08-28T09:50:02.092Z,101349.34
2018-08-28T09:52:30.579Z,101346.92
2018-08-28T09:54:59.137Z,101350.86
2018-08-28T09:57:27.625Z,101351.31
2018-08-28T09:59:56.117Z,101353.88
2018-08-28T10:02:24.703Z,101353.58
2018-08-28T10:04:53.331Z,101348.39
2018-08-28T10:07:21.741Z,101347.30
2018-08-28T10:09:50.250Z,101349.73
2018-08-28T10:12:18.853Z,101344.27
2018-08-28T10:14:47.396Z,101348.52
2018-08-28T10:17:15.968Z,101350.47
2018-08-28T10:19:44.465Z,101351.59
2018-08-28T10:22:13.084Z,101345.36
2018-08-28T10:24:41.562Z,101345.30
2018-08-28T10:27:10.040Z,101340.11
2018-08-28T10:29:38.600Z,101345.52
2018-08-28T10:32:07.657Z,101342.19
2018-08-28T10:34:36.237Z,101340.25
2018-08-28T10:37:04.983Z,101347.25
2018-08-28T10:39:33.534Z,101341.63
2018-08-28T10:42:02.062Z,101334.91
2018-08-28T10:44:30.559Z,101339.15
2018-08-28T10:46:59.221Z,101339.36
2018-08-28T10:49:27.631Z,101337.25
2018-08-28T10:51:56.248Z,101343.38
2018-08-28T10:54:24.724Z,101340.64
2018-08-28T10:56:53.261Z,101335.34
2018-08-28T10:59:21.797Z,101338.19
2018-08-28T11:01:50.288Z,101332.36
2018-08-28T11:04:26.013Z,101339.53
2018-08-28T11:06:55.081Z,101341.18
2018-08-28T11:09:23.601Z,101336.91
2018-08-28T11:11:52.147Z,101334.76
2018-08-28T11:14:20.667Z,101329.55
2018-08-28T11:16:49.203Z,101334.91
2018-08-28T11:19:17.788Z,101334.95
2018-08-28T11:21:46.346Z,101341.40
2018-08-28T11:24:14.889Z,101337.45
2018-08-28T11:26:43.407Z,101344.00
2018-08-28T11:29:11.984Z,101343.34
2018-08-28T11:31:40.598Z,101346.39
2018-08-28T11:34:09.202Z,101341.92
2018-08-28T11:36:37.708Z,101339.60
2018-08-28T11:39:07.092Z,101335.86
2018-08-28T11:41:35.626Z,101334.88
2018-08-28T11:44:04.157Z,101336.21
2018-08-28T11:46:32.691Z,101333.98
2018-08-28T11:49:01.235Z,101330.63
2018-08-28T11:51:30.288Z,101325.39
2018-08-28T11:53:58.859Z,101325.16
2018-08-28T11:56:27.382Z,101327.00
2018-08-28T11:58:55.906Z,101321.18
2018-08-28T12:01:24.397Z,101324.27
2018-08-28T12:03:52.872Z,101318.23
2018-08-28T12:06:21.718Z,101314.31
2018-08-28T12:08:50.242Z,101312.88
2018-08-28T12:11:18.716Z,101315.08
2018-08-28T12:13:47.312Z,101307.31
2018-08-28T12:16:15.866Z,101304.89
2018-08-28T12:18:44.365Z,101301.78
2018-08-28T12:21:13.686Z,101302.80
2018-08-28T12:23:42.225Z,101302.24
2018-08-28T12:26:10.727Z,101306.59
2018-08-28T12:28:39.329Z,101297.23
2018-08-28T12:31:07.845Z,101294.67
2018-08-28T12:33:37.467Z,101294.20
2018-08-28T12:36:05.977Z,101296.64
2018-08-28T12:38:34.486Z,101293.05
2018-08-28T12:41:03.005Z,101290.92
2018-08-28T12:43:31.615Z,101294.27
2018-08-28T12:46:00.114Z,101296.95
2018-08-28T12:48:28.662Z,101298.31
2018-08-28T12:50:57.174Z,101300.75
2018-08-28T12:53:25.704Z,101302.83
2018-08-28T12:55:54.285Z,101297.27
2018-08-28T12:58:22.798Z,101302.64
2018-08-28T13:00:51.319Z,101292.61
2018-08-28T13:03:19.827Z,101289.33
2018-08-28T13:05:49.095Z,101293.90
2018-08-28T13:08:18.722Z,101289.88
2018-08-28T13:10:47.288Z,101285.60
2018-08-28T13:13:15.855Z,101292.33
2018-08-28T13:15:44.442Z,101282.56
2018-08-28T13:18:12.999Z,101283.25
2018-08-28T13:20:41.477Z,101283.20
2018-08-28T13:23:10.012Z,101278.34
2018-08-28T13:25:38.797Z,101286.12
2018-08-28T13:28:07.130Z,101285.50
2018-08-28T13:30:35.694Z,101283.06
2018-08-28T13:33:04.203Z,101284.06
2018-08-28T13:35:32.678Z,101277.58
2018-08-28T13:38:01.526Z,101276.64
2018-08-28T13:40:30.139Z,101276.50
2018-08-28T13:42:58.620Z,101277.58
2018-08-28T13:45:27.191Z,101274.52
2018-08-28T13:47:55.727Z,101272.44
2018-08-28T13:50:24.261Z,101273.61
2018-08-28T13:52:52.761Z,101272.30
2018-08-28T13:55:21.285Z,101265.47
2018-08-28T13:57:49.787Z,101271.56
2018-08-28T14:00:18.298Z,101273.58
2018-08-28T14:02:47.078Z,101273.59
2018-08-28T14:05:15.658Z,101270.32
2018-08-28T14:07:45.357Z,101257.12
2018-08-28T14:10:14.226Z,101263.52
2018-08-28T14:12:42.866Z,101259.67
2018-08-28T14:15:11.377Z,101260.38
2018-08-28T14:17:39.934Z,101260.59
2018-08-28T14:20:08.461Z,101258.06
2018-08-28T14:22:37.057Z,101259.59
2018-08-28T14:25:05.837Z,101264.44
2018-08-28T14:27:34.388Z,101262.30
2018-08-28T14:30:02.938Z,101257.31
2018-08-28T14:32:31.465Z,101256.23
2018-08-28T14:35:00.005Z,101254.73
2018-08-28T14:37:28.574Z,101258.92
2018-08-28T14:39:57.163Z,101258.51
2018-08-28T14:42:25.825Z,101253.53
2018-08-28T14:44:54.266Z,101254.97
2018-08-28T14:47:22.817Z,101248.65
2018-08-28T14:49:51.477Z,101252.55
2018-08-28T14:52:19.960Z,101251.13
2018-08-28T14:54:48.513Z,101244.11
2018-08-28T14:57:17.078Z,101241.00
2018-08-28T14:59:45.566Z,101244.67
2018-08-28T15:02:14.093Z,101238.77
2018-08-28T15:04:43.029Z,101243.71
2018-08-28T15:07:11.765Z,101238.44
2018-08-28T15:09:40.143Z,101240.53
2018-08-28T15:12:08.704Z,101241.02
2018-08-28T15:14:37.226Z,101235.23
2018-08-28T15:17:05.865Z,101232.25
2018-08-28T15:19:34.395Z,101230.08
2018-08-28T15:22:02.890Z,101226.25
2018-08-28T15:27:13.256Z,101223.04
2018-08-28T15:29:41.609Z,101218.02
2018-08-28T15:32:10.108Z,101211.67
2018-08-28T15:34:38.937Z,101219.06
2018-08-28T15:37:07.449Z,101220.15
2018-08-28T15:39:35.979Z,101215.63
2018-08-28T15:42:04.521Z,101215.12
2018-08-28T15:44:33.042Z,101205.19
2018-08-28T15:47:01.608Z,101213.09
2018-08-28T15:49:30.141Z,101213.36
2018-08-28T15:51:58.645Z,101200.30
2018-08-28T15:54:28.240Z,101208.03
2018-08-28T15:56:56.739Z,101217.48
2018-08-28T15:59:25.231Z,101209.13
2018-08-28T16:01:53.869Z,101207.33
2018-08-28T16:04:22.391Z,101206.02
2018-08-28T16:06:52.202Z,101201.45
2018-08-28T16:09:20.694Z,101202.63
2018-08-28T16:11:49.300Z,101196.14
2018-08-28T16:14:17.779Z,101187.86
2018-08-28T16:16:47.125Z,101196.36
2018-08-28T16:19:16.634Z,101192.97
2018-08-28T16:21:55.537Z,101191.06
2018-08-28T16:24:24.081Z,101194.28
2018-08-28T16:26:53.238Z,101192.45
2018-08-28T16:29:21.812Z,101196.33
2018-08-28T16:31:50.338Z,101186.06
2018-08-28T16:34:19.247Z,101185.80
2018-08-28T16:36:47.741Z,101181.75
2018-08-28T16:39:16.246Z,101182.27
2018-08-28T16:41:44.848Z,101178.45
2018-08-28T16:44:13.752Z,101175.14
2018-08-28T16:46:42.306Z,101174.44
2018-08-28T16:49:10.863Z,101168.91
2018-08-28T16:51:39.388Z,101168.80
2018-08-28T16:54:07.876Z,101156.07
2018-08-28T16:56:36.415Z,101164.12
2018-08-28T16:59:05.082Z,101160.50
2018-08-28T17:01:33.995Z,101156.28
2018-08-28T17:04:02.446Z,101155.68
2018-08-28T17:06:30.929Z,101163.20
2018-08-28T17:08:59.449Z,101159.52
2018-08-28T17:11:27.977Z,101158.36
2018-08-28T17:13:56.516Z,101152.96
2018-08-28T17:16:25.055Z,101146.18
2018-08-28T17:18:53.581Z,101142.00
2018-08-28T17:21:22.453Z,101139.49
2018-08-28T17:23:50.964Z,101134.86
2018-08-28T17:26:19.457Z,101135.48
2018-08-28T17:28:47.992Z,101130.49
2018-08-28T17:31:16.495Z,101129.52
2018-08-28T17:33:45.038Z,101136.69
2018-08-28T17:36:13.539Z,101132.16
2018-08-28T17:38:42.139Z,101129.88
2018-08-28T17:41:10.990Z,101133.02
2018-08-28T17:43:39.471Z,101125.30
2018-08-28T17:46:07.973Z,101124.59
2018-08-28T17:48:36.526Z,101118.95
2018-08-28T17:51:05.106Z,101127.62
2018-08-28T17:53:33.669Z,101124.13
2018-08-28T17:56:02.169Z,101129.17
2018-08-28T17:58:30.654Z,101127.83
2018-08-28T18:00:59.213Z,101131.89
2018-08-28T18:03:27.705Z,101126.60
2018-08-28T18:05:56.220Z,101128.63
2018-08-28T18:08:24.795Z,101120.72
2018-08-28T18:10:53.324Z,101126.87
2018-08-28T18:13:21.845Z,101128.85
2018-08-28T18:15:50.422Z,101129.97
2018-08-28T18:18:19.346Z,101124.48
2018-08-28T18:20:47.827Z,101130.11
2018-08-28T18:23:16.355Z,101125.11
2018-08-28T18:25:45.345Z,101131.48
2018-08-28T18:28:13.874Z,101133.61
2018-08-28T18:30:42.454Z,101132.20
2018-08-28T18:33:11.043Z,101126.84
2018-08-28T18:35:39.943Z,101125.41
2018-08-28T18:38:08.442Z,101121.56
2018-08-28T18:40:36.948Z,101117.14
2018-08-28T18:43:05.614Z,101114.20
2018-08-28T18:45:34.196Z,101124.41
2018-08-28T18:48:02.827Z,101116.70
2018-08-28T18:50:31.809Z,101127.17
2018-08-28T18:53:00.350Z,101126.98
2018-08-28T18:55:28.880Z,101119.98
2018-08-28T18:57:57.432Z,101118.55
2018-08-28T19:00:26.070Z,101124.08
2018-08-28T19:02:55.072Z,101124.48
2018-08-28T19:05:23.817Z,101127.87
2018-08-28T19:07:52.556Z,101123.20
2018-08-28T19:10:21.515Z,101121.27
2018-08-28T19:12:50.524Z,101125.87
2018-08-28T19:15:19.468Z,101122.77
2018-08-28T19:17:48.172Z,101126.70
2018-08-28T19:20:17.523Z,101120.52
2018-08-28T19:22:46.625Z,101119.05
2018-08-28T19:25:15.950Z,101117.12
2018-08-28T19:27:45.164Z,101117.11
2018-08-28T19:30:14.206Z,101116.17
2018-08-28T19:32:43.624Z,101111.44
2018-08-28T19:35:12.469Z,101108.09
2018-08-28T19:37:41.186Z,101114.25
2018-08-28T19:40:09.904Z,101103.19
2018-08-28T19:42:38.499Z,101101.37
2018-08-28T19:45:07.080Z,101098.50
2018-08-28T19:47:35.689Z,101103.78
2018-08-28T19:50:04.547Z,101099.02
2018-08-28T19:52:33.125Z,101103.00
2018-08-28T19:55:01.674Z,101100.23
2018-08-28T19:57:30.208Z,101101.37
2018-08-28T19:59:58.718Z,101096.77
2018-08-28T20:02:27.211Z,101095.27
2018-08-28T20:04:56.242Z,101087.68
2018-08-28T20:07:24.848Z,101092.64
2018-08-28T20:09:53.366Z,101090.60
2018-08-28T20:12:21.951Z,101088.44
2018-08-28T20:14:50.463Z,101087.44
2018-08-28T20:17:19.028Z,101089.89
2018-08-28T20:19:47.557Z,101085.59
2018-08-28T20:22:16.061Z,101084.44
2018-08-28T20:24:44.574Z,101087.59
2018-08-28T20:27:13.061Z,101085.55
2018-08-28T20:29:41.666Z,101090.86
2018-08-28T20:32:10.286Z,101093.52
2018-08-28T20:34:38.858Z,101093.46
2018-08-28T20:37:07.429Z,101078.73
2018-08-28T20:39:35.938Z,101078.30
2018-08-28T20:42:04.544Z,101079.17
2018-08-28T20:44:33.062Z,101080.73
2018-08-28T20:47:01.751Z,101073.78
2018-08-28T20:49:30.331Z,101079.38
2018-08-28T20:51:58.794Z,101075.05
2018-08-28T20:54:27.275Z,101063.98
2018-08-28T20:56:55.827Z,101063.46
2018-08-28T20:59:24.339Z,101062.94
2018-08-28T21:01:52.886Z,101069.89
2018-08-28T21:04:21.389Z,101061.22
2018-08-28T21:06:49.986Z,101055.83
2018-08-28T21:09:18.467Z,101055.31
2018-08-28T21:11:46.995Z,101055.58
2018-08-28T21:14:15.517Z,101053.16
2018-08-28T21:16:44.026Z,101048.02
2018-08-28T21:19:12.509Z,101047.95
2018-08-28T21:21:41.017Z,101044.73
2018-08-28T21:24:09.580Z,101045.46
2018-08-28T21:26:38.094Z,101041.03
2018-08-28T21:29:06.704Z,101036.39
2018-08-28T21:31:35.216Z,101034.05
2018-08-28T21:34:03.726Z,101032.50
2018-08-28T21:36:32.267Z,101029.30
2018-08-28T21:39:01.069Z,101027.68
2018-08-28T21:41:29.645Z,101029.55
2018-08-28T21:43:58.222Z,101031.06
2018-08-28T21:46:26.726Z,101029.16
2018-08-28T21:48:55.201Z,101025.05
2018-08-28T21:51:24.146Z,101029.80
2018-08-28T21:53:52.645Z,101023.61
2018-08-28T21:56:21.150Z,101023.11
2018-08-28T21:58:49.722Z,101016.02
2018-08-28T22:01:18.213Z,101016.52
2018-08-28T22:03:46.719Z,101012.77
2018-08-28T22:06:20.353Z,101010.79
2018-08-28T22:08:48.826Z,101007.23
2018-08-28T22:11:17.364Z,101005.68
2018-08-28T22:13:45.963Z,101007.55
2018-08-28T22:16:14.465Z,101007.14
2018-08-28T22:18:42.997Z,101004.88
2018-08-28T22:21:11.494Z,101002.11
2018-08-28T22:23:40.077Z,101010.95
2018-08-28T22:26:08.598Z,101002.14
2018-08-28T22:28:37.104Z,100994.66
2018-08-28T22:31:06.009Z,101002.87
2018-08-28T22:33:34.513Z,101000.53
2018-08-28T22:36:03.026Z,101002.64
2018-08-28T22:38:31.550Z,100994.09
2018-08-28T22:41:00.065Z,100996.14
2018-08-28T22:43:28.599Z,100991.77
2018-08-28T22:45:57.070Z,100991.94
2018-08-28T22:48:25.587Z,100998.94
2018-08-28T22:50:54.130Z,100992.67
2018-08-28T22:53:22.721Z,100989.08
2018-08-28T22:55:51.195Z,100987.35
2018-08-28T22:58:19.692Z,100980.76
2018-08-28T23:00:48.223Z,100987.75
2018-08-28T23:03:16.751Z,100977.45
2018-08-28T23:05:45.223Z,100979.31
2018-08-28T23:08:13.695Z,100976.53
2018-08-28T23:10:42.569Z,100977.78
2018-08-28T23:13:11.101Z,100976.13
2018-08-28T23:15:39.608Z,100977.19
2018-08-28T23:18:08.178Z,100975.85
2018-08-28T23:20:36.734Z,100967.39
2018-08-28T23:23:05.543Z,100965.65
2018-08-28T23:25:34.069Z,100960.92
2018-08-28T23:28:02.602Z,100958.35
2018-08-28T23:30:31.112Z,100953.95
2018-08-28T23:32:59.835Z,100952.66
2018-08-28T23:35:28.305Z,100948.66
2018-08-28T23:37:56.809Z,100947.84
2018-08-28T23:40:25.331Z,100945.05
2018-08-28T23:42:53.858Z,100937.23
2018-08-28T23:45:22.347Z,100938.06
2018-08-28T23:47:50.876Z,100940.76
2018-08-28T23:50:19.387Z,100933.50
2018-08-28T23:52:47.949Z,100933.50
2018-08-28T23:55:16.519Z,100927.36
2018-08-28T23:57:45.033Z,100926.25
